Time;durP1;ratioP1;P1;durP2;ratioP2;P2;SDS_P1;SDS_P2;PMS_P1;PMS_P2;Temp;Humidity;BMP_temperature;BMP_pressure;BME280_temperature;BME280_humidity;BME280_pressure;Samples;Min_cycle;Max_cycle;Signal;HPM_P1;HPM_P2
2023/10/02 00:01:51;;;;;;;20.58;8.68;;;;;;;;;;4979509;28;20049;-71
2023/10/02 00:04:23;;;;;;;25.98;9.15;;;;;;;;;;4978432;28;20511;-70
2023/10/02 00:07:07;;;;;;;20.45;8.77;;;;;;;;;;4979779;28;20132;-71
2023/10/02 00:09:36;;;;;;;22.80;9.32;;;;;;;;;;4971990;28;20054;-71
2023/10/02 00:12:11;;;;;;;21.88;8.88;;;;;;;;;;4960353;28;20101;-71
2023/10/02 00:14:38;;;;;;;22.25;8.32;;;;;;;;;;4959865;28;20051;-71
2023/10/02 00:17:04;;;;;;;26.23;9.43;;;;;;;;;;4959003;28;20423;-71
2023/10/02 00:19:39;;;;;;;20.10;8.65;;;;;;;;;;4959514;28;20058;-71
2023/10/02 00:22:34;;;;;;;20.10;8.05;;;;;;;;;;4960534;28;20054;-71
2023/10/02 00:24:57;;;;;;;20.85;8.45;;;;;;;;;;4960083;28;20058;-72
2023/10/02 00:27:23;;;;;;;20.83;8.52;;;;;;;;;;4958077;28;20046;-71
2023/10/02 00:29:51;;;;;;;23.38;8.43;;;;;;;;;;4942594;28;20057;-71
2023/10/02 00:32:19;;;;;;;25.00;9.25;;;;;;;;;;4960336;28;20043;-71
2023/10/02 00:34:51;;;;;;;24.38;9.68;;;;;;;;;;4974420;28;20046;-71
2023/10/02 00:37:17;;;;;;;21.90;8.80;;;;;;;;;;4957760;28;21025;-71
2023/10/02 00:39:52;;;;;;;24.85;9.30;;;;;;;;;;4960138;28;20047;-70
2023/10/02 00:42:24;;;;;;;32.15;10.43;;;;;;;;;;4959113;28;20392;-70
2023/10/02 00:44:54;;;;;;;24.33;8.88;;;;;;;;;;4974179;28;20038;-70
2023/10/02 00:50:26;;;;;;;27.73;9.00;;;;;;;;;;4936238;28;20054;-71
2023/10/02 00:53:01;;;;;;;24.00;8.57;;;;;;;;;;4965803;28;20038;-71
2023/10/02 00:55:34;;;;;;;30.58;9.23;;;;;;;;;;4976638;28;20058;-70
2023/10/02 00:58:05;;;;;;;28.75;9.85;;;;;;;;;;4977680;28;20499;-71
2023/10/02 01:00:37;;;;;;;29.10;9.73;;;;;;;;;;4977776;28;20054;-70
2023/10/02 01:03:04;;;;;;;29.60;9.38;;;;;;;;;;4976832;28;20515;-71
2023/10/02 01:05:41;;;;;;;28.00;9.80;;;;;;;;;;4976746;28;20058;-71
2023/10/02 01:08:49;;;;;;;22.50;8.90;;;;;;;;;;4977178;28;20053;-71
2023/10/02 01:11:15;;;;;;;28.65;9.70;;;;;;;;;;4976219;28;20046;-72
2023/10/02 01:13:41;;;;;;;21.77;8.48;;;;;;;;;;4975284;28;20048;-71
2023/10/02 01:16:08;;;;;;;28.50;10.27;;;;;;;;;;4977172;28;20042;-71
2023/10/02 01:18:38;;;;;;;24.15;9.15;;;;;;;;;;4976439;28;20061;-71
2023/10/02 01:21:11;;;;;;;24.63;9.20;;;;;;;;;;4975232;28;20054;-71
2023/10/02 01:23:42;;;;;;;24.02;9.75;;;;;;;;;;4976612;28;20046;-71
2023/10/02 01:26:08;;;;;;;27.25;8.60;;;;;;;;;;4961140;28;20152;-71
2023/10/02 01:28:51;;;;;;;26.58;8.90;;;;;;;;;;4977605;28;20042;-71
2023/10/02 01:31:39;;;;;;;23.85;8.98;;;;;;;;;;4977651;28;20042;-71
2023/10/02 01:34:06;;;;;;;26.35;9.70;;;;;;;;;;4976286;28;20039;-71
2023/10/02 01:36:32;;;;;;;30.15;9.73;;;;;;;;;;4975977;28;20070;-71
2023/10/02 01:39:12;;;;;;;23.88;8.95;;;;;;;;;;4977056;28;20074;-71
2023/10/02 01:41:40;;;;;;;30.55;9.02;;;;;;;;;;4975044;28;20057;-70
2023/10/02 01:44:10;;;;;;;20.92;8.82;;;;;;;;;;4976484;28;20076;-71
2023/10/02 01:46:37;;;;;;;23.77;8.35;;;;;;;;;;4976047;28;20507;-71
2023/10/02 01:49:07;;;;;;;27.52;9.35;;;;;;;;;;4977217;28;20050;-71
2023/10/02 01:51:50;;;;;;;24.52;9.07;;;;;;;;;;4977987;28;20539;-71
2023/10/02 01:54:15;;;;;;;25.20;9.23;;;;;;;;;;4975872;28;20053;-70
2023/10/02 01:56:45;;;;;;;19.48;8.27;;;;;;;;;;4975836;28;20648;-71
2023/10/02 01:59:18;;;;;;;27.90;10.15;;;;;;;;;;4961523;28;20038;-71
2023/10/02 02:01:46;;;;;;;22.10;8.70;;;;;;;;;;4962092;28;20050;-71
2023/10/02 02:04:16;;;;;;;28.05;9.35;;;;;;;;;;4975808;28;20046;-71
2023/10/02 02:06:51;;;;;;;30.15;9.65;;;;;;;;;;4975260;28;20050;-71
2023/10/02 02:09:24;;;;;;;32.13;10.73;;;;;;;;;;4977320;28;20060;-71
2023/10/02 02:12:07;;;;;;;24.17;9.45;;;;;;;;;;4978068;28;20261;-71
2023/10/02 02:14:49;;;;;;;22.80;9.57;;;;;;;;;;4977437;28;20054;-71
2023/10/02 02:17:20;;;;;;;24.95;8.68;;;;;;;;;;4972285;28;20598;-71
2023/10/02 02:19:48;;;;;;;29.83;8.75;;;;;;;;;;4974749;28;20053;-71
2023/10/02 02:22:19;;;;;;;25.73;8.88;;;;;;;;;;4987661;28;20579;-71
2023/10/02 02:24:47;;;;;;;26.70;8.80;;;;;;;;;;4976413;28;20085;-71
2023/10/02 02:27:14;;;;;;;25.90;9.20;;;;;;;;;;4979733;28;20504;-71
2023/10/02 02:29:40;;;;;;;30.83;9.38;;;;;;;;;;4981072;28;20050;-71
2023/10/02 02:32:09;;;;;;;26.25;9.25;;;;;;;;;;4996003;28;20042;-71
2023/10/02 02:34:36;;;;;;;26.40;9.57;;;;;;;;;;4979769;28;20916;-71
2023/10/02 02:37:03;;;;;;;26.85;9.75;;;;;;;;;;4981064;28;20042;-71
2023/10/02 02:39:29;;;;;;;27.73;10.13;;;;;;;;;;4978337;28;20129;-71
2023/10/02 02:44:46;;;;;;;30.70;9.98;;;;;;;;;;4978957;28;20052;-71
2023/10/02 02:47:14;;;;;;;29.42;11.38;;;;;;;;;;4979253;28;20043;-72
2023/10/02 02:49:53;;;;;;;30.20;10.60;;;;;;;;;;4979457;28;20046;-72
2023/10/02 02:52:26;;;;;;;35.05;10.40;;;;;;;;;;4981433;28;20037;-72
2023/10/02 02:55:03;;;;;;;26.88;9.77;;;;;;;;;;4981349;28;20046;-72
2023/10/02 02:57:34;;;;;;;27.05;10.20;;;;;;;;;;4994728;28;20060;-70
2023/10/02 03:00:29;;;;;;;22.77;9.27;;;;;;;;;;4979583;28;20049;-70
2023/10/02 03:02:56;;;;;;;26.85;9.45;;;;;;;;;;4980945;28;20081;-71
2023/10/02 03:05:25;;;;;;;31.92;9.30;;;;;;;;;;4979311;28;20050;-71
2023/10/02 03:07:54;;;;;;;31.88;9.82;;;;;;;;;;4980581;28;20046;-70
2023/10/02 03:10:23;;;;;;;32.60;10.45;;;;;;;;;;4986734;28;20561;-71
2023/10/02 03:12:50;;;;;;;25.67;9.63;;;;;;;;;;4980012;28;20893;-71
2023/10/02 03:15:20;;;;;;;28.67;9.63;;;;;;;;;;4980051;28;20050;-71
2023/10/02 03:17:49;;;;;;;26.38;10.00;;;;;;;;;;4980179;28;21122;-71
2023/10/02 03:20:24;;;;;;;23.10;7.78;;;;;;;;;;4980188;28;20487;-71
2023/10/02 03:22:53;;;;;;;25.38;8.63;;;;;;;;;;4979854;28;20057;-71
2023/10/02 03:25:28;;;;;;;30.35;10.77;;;;;;;;;;4978634;28;20149;-71
2023/10/02 03:27:55;;;;;;;32.40;9.45;;;;;;;;;;4979712;28;20057;-70
2023/10/02 03:30:38;;;;;;;33.88;9.90;;;;;;;;;;4980329;28;20589;-71
2023/10/02 03:33:17;;;;;;;27.85;9.20;;;;;;;;;;4979023;28;20125;-71
2023/10/02 03:36:10;;;;;;;26.33;9.77;;;;;;;;;;4979421;28;20698;-72
2023/10/02 03:38:41;;;;;;;30.65;9.93;;;;;;;;;;4978941;28;20046;-71
2023/10/02 03:41:11;;;;;;;27.33;9.55;;;;;;;;;;4979720;28;20145;-71
2023/10/02 03:43:43;;;;;;;28.25;10.10;;;;;;;;;;4979341;28;20495;-71
2023/10/02 03:46:43;;;;;;;26.27;8.93;;;;;;;;;;4979712;28;20523;-71
2023/10/02 03:49:04;;;;;;;27.75;8.82;;;;;;;;;;4979664;28;20120;-71
2023/10/02 03:51:40;;;;;;;21.33;8.45;;;;;;;;;;4979071;28;21057;-70
2023/10/02 03:54:17;;;;;;;26.00;9.48;;;;;;;;;;4980186;28;20462;-70
2023/10/02 03:56:49;;;;;;;30.23;9.57;;;;;;;;;;4977208;28;20097;-71
2023/10/02 03:59:21;;;;;;;26.85;9.52;;;;;;;;;;4978038;28;20046;-71
2023/10/02 04:01:47;;;;;;;;;;;;;;;;;;4979988;28;20054;-70
2023/10/02 04:06:42;;;;;;;27.85;9.70;;;;;;;;;;4978033;28;20061;-71
2023/10/02 04:09:13;;;;;;;32.03;10.63;;;;;;;;;;4979070;28;20042;-72
2023/10/02 04:11:42;;;;;;;27.50;9.30;;;;;;;;;;4977497;28;20058;-72
2023/10/02 04:14:17;;;;;;;24.90;9.43;;;;;;;;;;4979744;28;20046;-73
2023/10/02 04:17:37;;;;;;;26.38;9.52;;;;;;;;;;4978740;28;20617;-72
2023/10/02 04:19:43;;;;;;;31.27;9.90;;;;;;;;;;4971701;28;20050;-73
2023/10/02 04:22:16;;;;;;;37.85;10.55;;;;;;;;;;4977346;28;20042;-70
2023/10/02 04:24:53;;;;;;;28.15;10.30;;;;;;;;;;4992651;28;20046;-71
2023/10/02 04:28:00;;;;;;;29.42;9.55;;;;;;;;;;4978041;28;20065;-71
2023/10/02 04:32:49;;;;;;;27.85;9.63;;;;;;;;;;4977834;28;20050;-71
2023/10/02 04:38:07;;;;;;;33.92;9.60;;;;;;;;;;4977953;28;20436;-71
2023/10/02 04:40:51;;;;;;;29.95;10.73;;;;;;;;;;4976933;28;20050;-71
2023/10/02 04:43:22;;;;;;;32.22;10.27;;;;;;;;;;4976734;28;20046;-71
2023/10/02 04:45:52;;;;;;;25.17;8.68;;;;;;;;;;4977079;28;20050;-71
2023/10/02 04:48:25;;;;;;;29.65;11.07;;;;;;;;;;4977354;28;20454;-72
2023/10/02 04:50:53;;;;;;;31.60;9.68;;;;;;;;;;4973361;28;20480;-70
2023/10/02 04:53:22;;;;;;;29.77;10.05;;;;;;;;;;4977626;28;20559;-72
2023/10/02 04:56:07;;;;;;;27.27;9.15;;;;;;;;;;4976282;28;20673;-71
2023/10/02 04:58:39;;;;;;;30.02;9.93;;;;;;;;;;4978841;28;20042;-70
2023/10/02 05:03:32;;;;;;;24.92;9.48;;;;;;;;;;4978623;28;20046;-70
2023/10/02 05:05:59;;;;;;;30.92;10.40;;;;;;;;;;4977045;28;20050;-70
2023/10/02 05:08:33;;;;;;;26.48;9.50;;;;;;;;;;4976531;28;20140;-69
2023/10/02 05:11:07;;;;;;;23.77;9.32;;;;;;;;;;4978601;28;20058;-70
2023/10/02 05:16:32;;;;;;;34.30;9.98;;;;;;;;;;4979215;28;20109;-70
2023/10/02 05:18:59;;;;;;;32.38;10.13;;;;;;;;;;4979542;28;20042;-70
2023/10/02 05:21:38;;;;;;;26.42;8.85;;;;;;;;;;4979911;28;20050;-70
2023/10/02 05:24:13;;;;;;;33.67;9.88;;;;;;;;;;4997695;28;20074;-70
2023/10/02 05:26:41;;;;;;;26.98;9.18;;;;;;;;;;4981766;28;20740;-70
2023/10/02 05:29:09;;;;;;;32.88;10.27;;;;;;;;;;4977616;28;20590;-70
2023/10/02 05:31:35;;;;;;;29.55;9.40;;;;;;;;;;4978085;28;20063;-71
2023/10/02 05:34:22;;;;;;;25.80;9.73;;;;;;;;;;4978195;28;21074;-71
2023/10/02 05:39:42;;;;;;;30.52;9.73;;;;;;;;;;4993503;28;20057;-70
2023/10/02 05:42:14;;;;;;;29.08;10.02;;;;;;;;;;4971413;28;20048;-70
2023/10/02 05:44:42;;;;;;;30.77;10.45;;;;;;;;;;4978669;28;20042;-70
2023/10/02 05:47:08;;;;;;;32.15;10.13;;;;;;;;;;4977257;28;20046;-70
2023/10/02 05:49:36;;;;;;;28.48;9.77;;;;;;;;;;4977988;28;20153;-71
2023/10/02 05:52:03;;;;;;;34.22;10.85;;;;;;;;;;4977234;28;20053;-71
2023/10/02 05:54:35;;;;;;;30.80;10.05;;;;;;;;;;4977286;28;20046;-71
2023/10/02 05:57:12;;;;;;;24.95;9.32;;;;;;;;;;4976397;28;20133;-71
2023/10/02 05:59:54;;;;;;;27.83;9.98;;;;;;;;;;4977932;28;20798;-71
2023/10/02 06:02:22;;;;;;;29.42;10.25;;;;;;;;;;4981636;28;20125;-71
2023/10/02 06:04:53;;;;;;;28.13;10.13;;;;;;;;;;4979847;28;20050;-71
2023/10/02 06:07:40;;;;;;;25.00;9.02;;;;;;;;;;4980979;28;20562;-71
2023/10/02 06:10:08;;;;;;;28.95;10.45;;;;;;;;;;4982110;28;20517;-71
2023/10/02 06:12:42;;;;;;;29.67;10.45;;;;;;;;;;4982375;28;20058;-71
2023/10/02 06:17:53;;;;;;;33.85;10.50;;;;;;;;;;4980918;28;20042;-71
2023/10/02 06:20:19;;;;;;;23.92;8.50;;;;;;;;;;4976384;28;20081;-70
2023/10/02 06:22:47;;;;;;;35.03;10.10;;;;;;;;;;4979260;28;20081;-71
2023/10/02 06:25:18;;;;;;;24.55;9.23;;;;;;;;;;4981212;28;20518;-71
2023/10/02 06:27:47;;;;;;;26.38;9.85;;;;;;;;;;4981788;28;20149;-71
2023/10/02 06:30:16;;;;;;;26.40;8.20;;;;;;;;;;4980562;28;20046;-71
2023/10/02 06:32:53;;;;;;;32.13;10.10;;;;;;;;;;4980579;28;20500;-71
2023/10/02 06:35:22;;;;;;;29.25;10.70;;;;;;;;;;4995679;28;20534;-72
2023/10/02 06:37:52;;;;;;;29.27;8.95;;;;;;;;;;4980308;28;20128;-72
2023/10/02 06:40:23;;;;;;;28.08;9.13;;;;;;;;;;4980192;28;20050;-73
2023/10/02 06:42:50;;;;;;;25.03;9.57;;;;;;;;;;4982077;28;20053;-71
2023/10/02 06:45:21;;;;;;;32.97;9.93;;;;;;;;;;4980840;28;20065;-73
2023/10/02 06:47:48;;;;;;;28.20;9.85;;;;;;;;;;4982774;28;20042;-73
2023/10/02 06:52:57;;;;;;;28.75;10.13;;;;;;;;;;4978921;28;20141;-73
2023/10/02 06:55:24;;;;;;;25.38;10.13;;;;;;;;;;4979935;28;20927;-73
2023/10/02 06:57:51;;;;;;;30.75;10.43;;;;;;;;;;4980277;28;20054;-72
2023/10/02 07:00:20;;;;;;;32.60;10.98;;;;;;;;;;4980643;28;20035;-73
2023/10/02 07:02:58;;;;;;;26.63;10.30;;;;;;;;;;4979985;28;20047;-73
2023/10/02 07:05:32;;;;;;;25.27;10.52;;;;;;;;;;4979776;28;20065;-74
2023/10/02 07:08:26;;;;;;;29.88;11.18;;;;;;;;;;4980295;28;20133;-72
2023/10/02 07:10:52;;;;;;;25.77;10.38;;;;;;;;;;4979716;28;20104;-72
2023/10/02 07:13:21;;;;;;;25.58;10.55;;;;;;;;;;4960350;28;20124;-74
2023/10/02 07:15:48;;;;;;;29.50;10.63;;;;;;;;;;4960941;28;20046;-74
2023/10/02 07:18:16;;;;;;;27.48;11.00;;;;;;;;;;4972051;28;20109;-74
2023/10/02 07:20:49;;;;;;;28.52;10.23;;;;;;;;;;4980511;28;20492;-73
2023/10/02 07:23:19;;;;;;;25.70;10.52;;;;;;;;;;4980030;28;20133;-72
2023/10/02 07:25:53;;;;;;;24.00;11.20;;;;;;;;;;4979873;28;20107;-72
2023/10/02 07:28:22;;;;;;;29.73;11.00;;;;;;;;;;4980775;28;20668;-72
2023/10/02 07:30:51;;;;;;;30.02;11.13;;;;;;;;;;4980065;28;20196;-74
2023/10/02 07:33:18;;;;;;;29.98;11.02;;;;;;;;;;4979974;28;20141;-71
2023/10/02 07:35:52;;;;;;;26.48;10.77;;;;;;;;;;4979670;28;20054;-72
2023/10/02 07:38:22;;;;;;;24.83;10.32;;;;;;;;;;4980299;28;20069;-72
2023/10/02 07:40:48;;;;;;;25.02;10.57;;;;;;;;;;4979572;28;20133;-73
2023/10/02 07:43:20;;;;;;;23.10;10.13;;;;;;;;;;4979839;28;20863;-71
2023/10/02 07:46:01;;;;;;;27.48;10.93;;;;;;;;;;4980303;28;20089;-72
2023/10/02 07:48:35;;;;;;;24.27;10.20;;;;;;;;;;4979585;28;20076;-72
2023/10/02 07:51:06;;;;;;;23.67;10.80;;;;;;;;;;4976437;28;20124;-73
2023/10/02 07:53:40;;;;;;;24.50;10.13;;;;;;;;;;4980041;28;20491;-72
2023/10/02 07:56:12;;;;;;;26.05;10.23;;;;;;;;;;4979135;28;20116;-73
2023/10/02 07:58:39;;;;;;;26.95;10.35;;;;;;;;;;4979206;28;20629;-72
2023/10/02 08:01:13;;;;;;;27.75;10.45;;;;;;;;;;4978525;28;20233;-73
2023/10/02 08:03:43;;;;;;;22.27;10.52;;;;;;;;;;4980255;28;20046;-72
2023/10/02 08:06:21;;;;;;;26.85;10.75;;;;;;;;;;4979108;28;20056;-72
2023/10/02 08:11:40;;;;;;;24.25;10.57;;;;;;;;;;5005901;28;20596;-73
2023/10/02 08:14:06;;;;;;;27.65;11.45;;;;;;;;;;4978830;28;20046;-72
2023/10/02 08:16:34;;;;;;;24.38;11.38;;;;;;;;;;4979288;28;20049;-73
2023/10/02 08:19:04;;;;;;;28.27;11.52;;;;;;;;;;4977864;28;20069;-73
2023/10/02 08:21:47;;;;;;;23.85;10.60;;;;;;;;;;4980116;28;20042;-73
2023/10/02 08:24:13;;;;;;;27.23;11.02;;;;;;;;;;4958899;28;20035;-74
2023/10/02 08:26:43;;;;;;;28.85;11.20;;;;;;;;;;4979477;28;20418;-72
2023/10/02 08:29:17;;;;;;;28.48;11.43;;;;;;;;;;4978418;28;20050;-73
2023/10/02 08:31:44;;;;;;;26.08;11.73;;;;;;;;;;4979424;28;20046;-73
2023/10/02 08:34:12;;;;;;;28.95;11.90;;;;;;;;;;4978092;28;20053;-75
2023/10/02 08:36:41;;;;;;;24.75;10.00;;;;;;;;;;4978284;28;20137;-72
2023/10/02 08:39:08;;;;;;;26.30;11.07;;;;;;;;;;4977185;28;20046;-73
2023/10/02 08:41:43;;;;;;;25.55;11.05;;;;;;;;;;4976502;28;20090;-75
2023/10/02 08:44:15;;;;;;;27.05;10.65;;;;;;;;;;4978368;28;20049;-73
2023/10/02 08:46:43;;;;;;;26.92;11.27;;;;;;;;;;4978823;28;20779;-73
2023/10/02 08:49:12;;;;;;;24.50;10.88;;;;;;;;;;4977319;28;20448;-72
2023/10/02 08:51:38;;;;;;;28.05;11.20;;;;;;;;;;4974504;28;20515;-72
2023/10/02 08:54:05;;;;;;;26.70;11.20;;;;;;;;;;4972992;28;20053;-72
2023/10/02 08:56:40;;;;;;;26.40;11.18;;;;;;;;;;4977582;28;21131;-73
2023/10/02 08:59:18;;;;;;;25.02;11.63;;;;;;;;;;4975471;28;20100;-73
2023/10/02 09:01:47;;;;;;;27.50;11.88;;;;;;;;;;4977549;28;20108;-72
2023/10/02 09:07:44;;;;;;;25.80;10.65;;;;;;;;;;4978313;28;20055;-74
2023/10/02 09:09:45;;;;;;;23.35;10.93;;;;;;;;;;4964455;28;20049;-73
2023/10/02 09:12:15;;;;;;;23.90;10.40;;;;;;;;;;4978264;28;20038;-73
2023/10/02 09:14:41;;;;;;;28.85;11.48;;;;;;;;;;4978274;28;20169;-74
2023/10/02 09:17:12;;;;;;;29.33;11.75;;;;;;;;;;4977482;28;20141;-74
2023/10/02 09:19:39;;;;;;;26.90;11.57;;;;;;;;;;4978045;28;20078;-74
2023/10/02 09:22:10;;;;;;;29.50;11.02;;;;;;;;;;4978085;28;20100;-72
2023/10/02 09:24:41;;;;;;;24.95;10.52;;;;;;;;;;4978679;28;20403;-74
2023/10/02 09:27:24;;;;;;;25.90;11.47;;;;;;;;;;4976242;28;20042;-73
2023/10/02 09:30:15;;;;;;;30.38;11.93;;;;;;;;;;4978369;28;20133;-73
2023/10/02 09:32:47;;;;;;;26.88;11.25;;;;;;;;;;4978297;28;20168;-74
2023/10/02 09:35:25;;;;;;;27.13;11.43;;;;;;;;;;4976868;28;20867;-73
2023/10/02 09:38:04;;;;;;;23.83;10.93;;;;;;;;;;4977232;28;20482;-73
2023/10/02 09:43:20;;;;;;;23.75;11.13;;;;;;;;;;4977172;28;20053;-73
2023/10/02 09:45:48;;;;;;;26.00;11.82;;;;;;;;;;4977599;28;20054;-73
2023/10/02 09:51:07;;;;;;;30.50;11.13;;;;;;;;;;4976699;28;20042;-73
2023/10/02 09:54:02;;;;;;;24.67;11.45;;;;;;;;;;4978334;28;20045;-75
2023/10/02 09:56:37;;;;;;;23.75;10.93;;;;;;;;;;4992897;28;20677;-73
2023/10/02 09:59:16;;;;;;;25.23;11.45;;;;;;;;;;4976308;28;20046;-71
2023/10/02 10:01:41;;;;;;;26.30;11.05;;;;;;;;;;4978292;28;20538;-71
2023/10/02 10:07:09;;;;;;;25.85;10.85;;;;;;;;;;4977970;28;20476;-73
2023/10/02 10:09:50;;;;;;;26.08;11.70;;;;;;;;;;4989645;28;20150;-72
2023/10/02 10:12:32;;;;;;;29.08;12.18;;;;;;;;;;4977313;28;20073;-72
2023/10/02 10:15:23;;;;;;;26.38;11.07;;;;;;;;;;4977327;28;20109;-73
2023/10/02 10:17:52;;;;;;;26.42;11.45;;;;;;;;;;4977820;28;20054;-72
2023/10/02 10:20:20;;;;;;;26.15;12.10;;;;;;;;;;4976368;28;20051;-72
2023/10/02 10:22:56;;;;;;;26.63;11.52;;;;;;;;;;4977934;28;20050;-72
2023/10/02 10:27:58;;;;;;;28.40;11.32;;;;;;;;;;4977550;28;20062;-73
2023/10/02 10:30:28;;;;;;;24.60;10.98;;;;;;;;;;4977203;28;20053;-73
2023/10/02 10:35:40;;;;;;;25.67;11.40;;;;;;;;;;4990499;28;20085;-74
2023/10/02 10:41:00;;;;;;;24.75;11.05;;;;;;;;;;4978027;28;20120;-76
2023/10/02 10:43:43;;;;;;;27.10;12.27;;;;;;;;;;4973723;28;20116;-74
2023/10/02 10:46:13;;;;;;;31.17;11.80;;;;;;;;;;4977133;28;20092;-74
2023/10/02 10:48:40;;;;;;;26.25;12.02;;;;;;;;;;4981102;28;20065;-73
2023/10/02 10:51:20;;;;;;;27.75;11.52;;;;;;;;;;4980240;28;20054;-71
2023/10/02 10:54:00;;;;;;;23.90;11.52;;;;;;;;;;4980591;28;20423;-72
2023/10/02 10:56:27;;;;;;;26.20;11.43;;;;;;;;;;4980211;28;20053;-73
2023/10/02 10:59:02;;;;;;;30.67;11.07;;;;;;;;;;4981045;28;20562;-73
2023/10/02 11:01:27;;;;;;;28.48;12.45;;;;;;;;;;4977909;28;20061;-72
2023/10/02 11:04:01;;;;;;;24.48;11.90;;;;;;;;;;4981013;28;20043;-72
2023/10/02 11:06:28;;;;;;;25.58;10.45;;;;;;;;;;4979673;28;20499;-71
2023/10/02 11:09:18;;;;;;;28.30;11.38;;;;;;;;;;4980662;28;20050;-71
2023/10/02 11:11:49;;;;;;;24.88;11.88;;;;;;;;;;4994549;28;20538;-74
2023/10/02 11:14:34;;;;;;;30.90;11.77;;;;;;;;;;4979828;28;20050;-74
2023/10/02 11:17:04;;;;;;;25.88;12.02;;;;;;;;;;4979180;28;20042;-73
2023/10/02 11:22:14;;;;;;;24.73;11.85;;;;;;;;;;4981020;28;20046;-73
2023/10/02 11:24:55;;;;;;;28.30;11.80;;;;;;;;;;4980770;28;20065;-73
2023/10/02 11:27:24;;;;;;;28.35;11.82;;;;;;;;;;4978996;28;20410;-73
2023/10/02 11:30:03;;;;;;;26.35;11.88;;;;;;;;;;4980031;28;20120;-73
2023/10/02 11:32:54;;;;;;;28.88;11.52;;;;;;;;;;4979446;28;20141;-72
2023/10/02 11:35:21;;;;;;;26.40;11.48;;;;;;;;;;4979227;28;20468;-73
2023/10/02 11:37:47;;;;;;;28.23;12.23;;;;;;;;;;4979224;28;20050;-72
2023/10/02 11:40:13;;;;;;;25.85;11.80;;;;;;;;;;4979449;28;20035;-72
2023/10/02 11:42:40;;;;;;;26.25;12.18;;;;;;;;;;4980239;28;20892;-73
2023/10/02 11:45:07;;;;;;;23.75;11.00;;;;;;;;;;4977716;28;20053;-72
2023/10/02 11:47:33;;;;;;;29.58;11.52;;;;;;;;;;4974972;28;20089;-72
2023/10/02 11:49:59;;;;;;;26.98;11.82;;;;;;;;;;4977108;28;20138;-73
2023/10/02 11:52:24;;;;;;;26.75;12.25;;;;;;;;;;4977288;28;20049;-73
2023/10/02 11:54:50;;;;;;;28.13;12.13;;;;;;;;;;4978338;28;20046;-73
2023/10/02 11:57:15;;;;;;;27.25;12.02;;;;;;;;;;4974508;28;20565;-73
2023/10/02 11:59:43;;;;;;;28.20;12.32;;;;;;;;;;4976850;28;20061;-72
2023/10/02 12:02:13;;;;;;;27.30;12.05;;;;;;;;;;4978011;28;20050;-73
2023/10/02 12:04:39;;;;;;;27.92;12.10;;;;;;;;;;4978216;28;20046;-73
2023/10/02 12:07:05;;;;;;;30.40;12.90;;;;;;;;;;4975821;28;20081;-73
2023/10/02 12:09:33;;;;;;;27.70;11.70;;;;;;;;;;4977040;28;20046;-74
2023/10/02 12:11:59;;;;;;;33.20;12.75;;;;;;;;;;4978419;28;20057;-72
2023/10/02 12:14:28;;;;;;;27.73;11.18;;;;;;;;;;4978512;28;20046;-71
2023/10/02 12:17:00;;;;;;;28.15;11.95;;;;;;;;;;4978049;28;20049;-72
2023/10/02 12:19:28;;;;;;;30.50;13.27;;;;;;;;;;4975874;28;20061;-73
2023/10/02 12:21:54;;;;;;;26.73;11.05;;;;;;;;;;4977595;28;20488;-72
2023/10/02 12:24:20;;;;;;;27.27;11.80;;;;;;;;;;4977785;28;21026;-73
2023/10/02 12:26:46;;;;;;;28.48;11.95;;;;;;;;;;4977968;28;20512;-72
2023/10/02 12:29:12;;;;;;;30.25;12.05;;;;;;;;;;4977873;28;20110;-74
2023/10/02 12:31:37;;;;;;;29.05;11.50;;;;;;;;;;4976317;28;20181;-71
2023/10/02 12:34:04;;;;;;;27.88;11.50;;;;;;;;;;4978425;28;20046;-72
2023/10/02 12:36:31;;;;;;;26.52;12.02;;;;;;;;;;4978541;28;20053;-72
2023/10/02 12:38:57;;;;;;;26.92;12.00;;;;;;;;;;4975722;28;20043;-72
2023/10/02 12:41:28;;;;;;;29.02;11.93;;;;;;;;;;4978321;28;20050;-71
2023/10/02 12:43:56;;;;;;;23.77;10.88;;;;;;;;;;4978740;28;20046;-72
2023/10/02 12:46:24;;;;;;;28.45;11.63;;;;;;;;;;4978131;28;20049;-72
2023/10/02 12:48:50;;;;;;;26.23;11.52;;;;;;;;;;4978925;28;20634;-69
2023/10/02 12:51:17;;;;;;;32.47;11.90;;;;;;;;;;4978163;28;29745;-69
2023/10/02 12:53:43;;;;;;;29.17;11.88;;;;;;;;;;4978605;28;20097;-70
2023/10/02 12:56:32;;;;;;;30.95;12.90;;;;;;;;;;4977769;28;20137;-69
2023/10/02 12:58:58;;;;;;;29.35;11.88;;;;;;;;;;4973694;28;20050;-70
2023/10/02 13:01:26;;;;;;;31.00;12.88;;;;;;;;;;4976121;28;20088;-72
2023/10/02 13:03:54;;;;;;;27.65;11.93;;;;;;;;;;4978627;28;20630;-71
2023/10/02 13:06:21;;;;;;;30.02;12.50;;;;;;;;;;4977827;28;20133;-72
2023/10/02 13:08:47;;;;;;;28.55;12.52;;;;;;;;;;4978941;28;20558;-71
2023/10/02 13:11:18;;;;;;;28.13;11.18;;;;;;;;;;4967413;28;20999;-72
2023/10/02 13:13:49;;;;;;;31.85;12.13;;;;;;;;;;4978916;28;20062;-71
2023/10/02 13:16:18;;;;;;;29.40;12.25;;;;;;;;;;4976476;28;20954;-71
2023/10/02 13:18:45;;;;;;;28.88;12.63;;;;;;;;;;4977745;28;20057;-71
2023/10/02 13:21:14;;;;;;;29.75;12.30;;;;;;;;;;4978246;28;20448;-73
2023/10/02 13:23:40;;;;;;;33.78;12.07;;;;;;;;;;4976278;28;20046;-72
2023/10/02 13:26:08;;;;;;;29.33;12.50;;;;;;;;;;4978572;28;20519;-71
2023/10/02 13:28:34;;;;;;;31.38;12.50;;;;;;;;;;4976038;28;20149;-72
2023/10/02 13:31:13;;;;;;;31.98;12.63;;;;;;;;;;4977702;28;20499;-72
2023/10/02 13:33:52;;;;;;;33.20;12.13;;;;;;;;;;4977093;28;20435;-70
2023/10/02 13:36:24;;;;;;;33.90;12.05;;;;;;;;;;4975375;28;20060;-71
2023/10/02 13:38:58;;;;;;;27.52;11.70;;;;;;;;;;4973882;28;20044;-73
2023/10/02 13:41:28;;;;;;;30.30;12.07;;;;;;;;;;4975142;28;20127;-71
2023/10/02 13:43:56;;;;;;;29.08;11.50;;;;;;;;;;4976192;28;20606;-72
2023/10/02 13:46:22;;;;;;;33.42;12.10;;;;;;;;;;4974801;28;20061;-72
2023/10/02 13:48:54;;;;;;;29.75;12.10;;;;;;;;;;4973535;28;20046;-72
2023/10/02 13:51:21;;;;;;;29.65;12.15;;;;;;;;;;4973938;28;20042;-71
2023/10/02 13:53:49;;;;;;;28.73;11.88;;;;;;;;;;4975988;28;20572;-72
2023/10/02 13:56:20;;;;;;;26.38;11.80;;;;;;;;;;4974788;28;20259;-70
2023/10/02 13:58:50;;;;;;;26.98;11.23;;;;;;;;;;4977515;28;20046;-70
2023/10/02 14:01:24;;;;;;;34.05;12.68;;;;;;;;;;4974416;28;20054;-72
2023/10/02 14:03:51;;;;;;;30.08;11.80;;;;;;;;;;4974464;28;20038;-72
2023/10/02 14:06:18;;;;;;;32.15;11.80;;;;;;;;;;4974574;28;20050;-71
2023/10/02 14:08:44;;;;;;;27.40;11.30;;;;;;;;;;4972602;28;21773;-72
2023/10/02 14:11:19;;;;;;;30.30;11.45;;;;;;;;;;4974564;28;20046;-71
2023/10/02 14:13:48;;;;;;;32.08;12.45;;;;;;;;;;4974739;28;21210;-72
2023/10/02 14:16:20;;;;;;;27.67;11.90;;;;;;;;;;4976077;28;20046;-71
2023/10/02 14:18:51;;;;;;;26.05;11.20;;;;;;;;;;4975077;28;20121;-72
2023/10/02 14:21:17;;;;;;;29.58;11.63;;;;;;;;;;4975549;28;20555;-72
2023/10/02 14:23:45;;;;;;;30.38;11.73;;;;;;;;;;4976919;28;20050;-73
2023/10/02 14:26:11;;;;;;;29.40;11.60;;;;;;;;;;4980571;28;20054;-70
2023/10/02 14:28:37;;;;;;;28.98;11.40;;;;;;;;;;4978803;28;20049;-72
2023/10/02 14:31:02;;;;;;;27.85;11.52;;;;;;;;;;4979673;28;20038;-73
2023/10/02 14:33:28;;;;;;;28.98;11.68;;;;;;;;;;4979332;28;20042;-71
2023/10/02 14:35:54;;;;;;;24.88;11.80;;;;;;;;;;4979943;28;20056;-70
2023/10/02 14:38:23;;;;;;;30.60;12.48;;;;;;;;;;4980432;28;20042;-70
2023/10/02 14:40:50;;;;;;;29.73;12.25;;;;;;;;;;4977273;28;20793;-71
2023/10/02 14:43:16;;;;;;;33.58;12.88;;;;;;;;;;4979754;28;20046;-72
2023/10/02 14:45:42;;;;;;;34.75;13.32;;;;;;;;;;4977803;28;20558;-70
2023/10/02 14:48:07;;;;;;;38.80;12.80;;;;;;;;;;4979891;28;20164;-71
2023/10/02 14:50:35;;;;;;;34.33;12.25;;;;;;;;;;4977218;28;20050;-71
2023/10/02 14:53:01;;;;;;;30.13;12.43;;;;;;;;;;4979345;28;20492;-71
2023/10/02 14:55:27;;;;;;;34.58;12.55;;;;;;;;;;4979398;28;20057;-71
2023/10/02 14:57:53;;;;;;;30.00;12.82;;;;;;;;;;4977906;28;20516;-70
2023/10/02 15:00:21;;;;;;;31.90;12.63;;;;;;;;;;4976998;28;20511;-70
2023/10/02 15:02:51;;;;;;;32.13;11.90;;;;;;;;;;4977994;28;20100;-70
2023/10/02 15:05:22;;;;;;;30.58;12.85;;;;;;;;;;4978264;28;20568;-70
2023/10/02 15:07:52;;;;;;;34.40;12.33;;;;;;;;;;4976864;28;20046;-71
2023/10/02 15:10:22;;;;;;;30.08;12.27;;;;;;;;;;4963271;28;20297;-72
2023/10/02 15:12:52;;;;;;;30.85;11.38;;;;;;;;;;4977429;28;20417;-70
2023/10/02 15:15:22;;;;;;;33.72;12.23;;;;;;;;;;4976864;28;20069;-69
2023/10/02 15:17:53;;;;;;;;;;;;;;;;;;4977177;28;20068;-70
2023/10/02 15:20:27;;;;;;;30.30;11.73;;;;;;;;;;4979331;28;19928;-70
2023/10/02 15:22:55;;;;;;;32.20;13.07;;;;;;;;;;4978671;28;20969;-70
2023/10/02 15:25:21;;;;;;;29.63;11.70;;;;;;;;;;4978214;28;20045;-70
2023/10/02 15:27:53;;;;;;;32.95;13.07;;;;;;;;;;4975389;28;20115;-70
2023/10/02 15:30:21;;;;;;;28.13;12.93;;;;;;;;;;4977782;28;20046;-70
2023/10/02 15:32:47;;;;;;;30.35;11.70;;;;;;;;;;4977241;28;20100;-70
2023/10/02 15:35:15;;;;;;;33.22;13.23;;;;;;;;;;4978988;28;20121;-70
2023/10/02 15:37:43;;;;;;;30.27;12.77;;;;;;;;;;4976107;28;21038;-70